createdAt,value
2018-02-15T00:00:54.906Z,3.4
2018-02-15T00:01:54.912Z,3.42
2018-02-15T00:02:54.921Z,3.4
2018-02-15T00:03:54.933Z,3.41
2018-02-15T00:04:54.966Z,3.42
2018-02-15T00:05:54.921Z,3.41
2018-02-15T00:06:54.933Z,3.43
2018-02-15T00:07:54.918Z,3.43
2018-02-15T00:08:54.967Z,3.41
2018-02-15T00:09:54.957Z,3.43
2018-02-15T00:10:54.922Z,3.43
2018-02-15T00:11:54.962Z,3.42
2018-02-15T00:12:54.936Z,3.41
2018-02-15T00:13:54.930Z,3.4
2018-02-15T00:14:54.930Z,3.42
2018-02-15T00:15:54.948Z,3.42
2018-02-15T00:16:54.943Z,3.42
2018-02-15T00:17:54.946Z,3.43
2018-02-15T00:18:54.954Z,3.41
2018-02-15T00:19:55.314Z,3.44
2018-02-15T00:20:54.965Z,3.42
2018-02-15T00:21:54.960Z,3.41
2018-02-15T00:22:54.952Z,3.42
2018-02-15T00:23:54.956Z,3.42
2018-02-15T00:24:55.094Z,3.42
2018-02-15T00:25:55.077Z,3.42
2018-02-15T00:26:54.982Z,3.4
2018-02-15T00:27:54.979Z,3.43
2018-02-15T00:28:54.982Z,3.42
2018-02-15T00:29:55.030Z,3.43
2018-02-15T00:30:55.010Z,3.42
2018-02-15T00:31:55.005Z,3.43
2018-02-15T00:32:54.991Z,3.42
2018-02-15T00:33:55.009Z,3.42
2018-02-15T00:34:55.028Z,3.41
2018-02-15T00:35:55.012Z,3.42
2018-02-15T00:36:55.024Z,3.42
2018-02-15T00:37:55.003Z,3.42
2018-02-15T00:38:55.034Z,3.42
2018-02-15T00:39:55.024Z,3.42
2018-02-15T00:40:55.044Z,3.42
2018-02-15T00:41:55.035Z,3.43
2018-02-15T00:42:55.022Z,3.43
2018-02-15T00:43:55.044Z,3.43
2018-02-15T00:44:55.059Z,3.43
2018-02-15T00:45:55.037Z,3.42
2018-02-15T00:46:55.042Z,3.43
2018-02-15T00:47:55.060Z,3.43
2018-02-15T00:48:55.050Z,3.43
2018-02-15T00:49:55.080Z,3.42
2018-02-15T00:50:55.067Z,3.42
2018-02-15T00:51:55.125Z,3.43
2018-02-15T00:52:55.060Z,3.44
2018-02-15T00:53:55.088Z,3.43
2018-02-15T00:54:55.079Z,3.43
2018-02-15T00:55:55.095Z,3.42
2018-02-15T00:56:55.109Z,3.43
2018-02-15T00:57:55.101Z,3.44
2018-02-15T00:58:55.103Z,3.43
2018-02-15T00:59:55.092Z,3.44
2018-02-15T01:00:55.089Z,3.45
2018-02-15T01:01:55.101Z,3.45
2018-02-15T01:02:55.146Z,3.46
2018-02-15T01:03:55.211Z,3.46
2018-02-15T01:04:55.107Z,3.46
2018-02-15T01:05:55.144Z,3.46
2018-02-15T01:06:55.111Z,3.47
2018-02-15T01:07:55.118Z,3.47
2018-02-15T01:08:55.112Z,3.47
2018-02-15T01:09:55.130Z,3.46
2018-02-15T01:10:55.125Z,3.46
2018-02-15T01:11:55.125Z,3.46
2018-02-15T01:12:55.133Z,3.46
2018-02-15T01:13:55.140Z,3.47
2018-02-15T01:14:55.373Z,3.47
2018-02-15T01:15:55.192Z,3.46
2018-02-15T01:16:55.138Z,3.47
2018-02-15T01:17:55.149Z,3.47
2018-02-15T01:18:55.153Z,3.46
2018-02-15T01:19:55.208Z,3.47
2018-02-15T01:20:55.171Z,3.46
2018-02-15T01:21:55.171Z,3.45
2018-02-15T01:22:55.173Z,3.46
2018-02-15T01:23:55.188Z,3.46
2018-02-15T01:24:55.193Z,3.46
2018-02-15T01:25:55.455Z,3.47
2018-02-15T01:26:55.183Z,3.47
2018-02-15T01:27:55.186Z,3.47
2018-02-15T01:28:55.196Z,3.47
2018-02-15T01:29:55.205Z,3.47
2018-02-15T01:30:55.222Z,3.48
2018-02-15T01:31:55.251Z,3.47
2018-02-15T01:32:55.222Z,3.47
2018-02-15T01:33:55.202Z,3.48
2018-02-15T01:34:55.206Z,3.47
2018-02-15T01:35:55.217Z,3.46
2018-02-15T01:36:55.439Z,3.46
2018-02-15T01:37:55.249Z,3.47
2018-02-15T01:38:55.220Z,3.45
2018-02-15T01:39:55.219Z,3.45
2018-02-15T01:40:55.228Z,3.47
2018-02-15T01:41:55.265Z,3.46
2018-02-15T01:42:55.245Z,3.46
2018-02-15T01:43:55.237Z,3.47
2018-02-15T01:44:55.236Z,3.46
2018-02-15T01:45:55.255Z,3.45
2018-02-15T01:46:55.226Z,3.45
2018-02-15T01:47:55.878Z,3.46
2018-02-15T01:48:55.245Z,3.45
2018-02-15T01:49:55.244Z,3.46
2018-02-15T01:50:55.228Z,3.45
2018-02-15T01:51:55.240Z,3.47
2018-02-15T01:52:55.244Z,3.45
2018-02-15T01:53:55.283Z,3.45
2018-02-15T01:54:55.260Z,3.46
2018-02-15T01:55:55.264Z,3.44
2018-02-15T01:56:55.251Z,3.46
2018-02-15T01:57:55.277Z,3.46
2018-02-15T01:58:55.290Z,3.47
2018-02-15T01:59:55.273Z,3.46
2018-02-15T02:00:55.276Z,3.46
2018-02-15T02:01:55.291Z,3.47
2018-02-15T02:02:55.288Z,3.47
2018-02-15T02:03:55.293Z,3.46
2018-02-15T02:04:55.301Z,3.46
2018-02-15T02:05:55.359Z,3.45
2018-02-15T02:06:55.292Z,3.44
2018-02-15T02:07:55.302Z,3.43
2018-02-15T02:08:55.298Z,3.45
2018-02-15T02:09:55.318Z,3.43
2018-02-15T02:10:55.350Z,3.44
2018-02-15T02:11:55.354Z,3.44
2018-02-15T02:12:55.333Z,3.44
2018-02-15T02:13:55.347Z,3.45
2018-02-15T02:14:55.320Z,3.43
2018-02-15T02:15:55.365Z,3.44
2018-02-15T02:16:55.339Z,3.42
2018-02-15T02:17:55.327Z,3.41
2018-02-15T02:18:55.322Z,3.42
2018-02-15T02:19:55.354Z,3.41
2018-02-15T02:20:55.365Z,3.41
2018-02-15T02:21:55.361Z,3.4
2018-02-15T02:22:55.352Z,3.39
2018-02-15T02:23:55.353Z,3.4
2018-02-15T02:24:55.363Z,3.41
2018-02-15T02:25:55.362Z,3.43
2018-02-15T02:26:55.377Z,3.41
2018-02-15T02:27:55.359Z,3.41
2018-02-15T02:28:55.357Z,3.42
2018-02-15T02:29:55.370Z,3.4
2018-02-15T02:30:55.504Z,3.4
2018-02-15T02:31:55.394Z,3.42
2018-02-15T02:32:55.369Z,3.4
2018-02-15T02:33:55.422Z,3.41
2018-02-15T02:34:55.398Z,3.42
2018-02-15T02:35:55.421Z,3.42
2018-02-15T02:36:55.412Z,3.42
2018-02-15T02:37:55.420Z,3.39
2018-02-15T02:38:55.397Z,3.38
2018-02-15T02:39:55.410Z,3.39
2018-02-15T02:40:55.431Z,3.41
2018-02-15T02:41:55.432Z,3.4
2018-02-15T02:42:55.442Z,3.4
2018-02-15T02:43:55.429Z,3.39
2018-02-15T02:44:55.418Z,3.37
2018-02-15T02:45:55.430Z,3.38
2018-02-15T02:46:55.427Z,3.39
2018-02-15T02:47:55.472Z,3.38
2018-02-15T02:48:55.461Z,3.37
2018-02-15T02:49:55.450Z,3.37
2018-02-15T02:50:55.444Z,3.37
2018-02-15T02:51:55.447Z,3.39
2018-02-15T02:52:55.484Z,3.38
2018-02-15T02:53:55.478Z,3.39
2018-02-15T02:54:55.469Z,3.38
2018-02-15T02:55:55.457Z,3.38
2018-02-15T02:56:55.464Z,3.38
2018-02-15T02:57:55.491Z,3.37
2018-02-15T02:58:55.512Z,3.37
2018-02-15T02:59:55.466Z,3.38
2018-02-15T03:00:55.497Z,3.37
2018-02-15T03:01:55.516Z,3.37
2018-02-15T03:02:55.512Z,3.37
2018-02-15T03:03:55.516Z,3.36
2018-02-15T03:04:55.486Z,3.36
2018-02-15T03:05:55.510Z,3.37
2018-02-15T03:06:55.502Z,3.36
2018-02-15T03:07:55.504Z,3.37
2018-02-15T03:08:55.499Z,3.36
2018-02-15T03:09:55.523Z,3.36
2018-02-15T03:10:55.514Z,3.38
2018-02-15T03:11:55.481Z,3.38
2018-02-15T03:12:55.514Z,3.37
2018-02-15T03:13:55.498Z,3.37
2018-02-15T03:14:55.541Z,3.37
2018-02-15T03:15:55.518Z,3.36
2018-02-15T03:16:55.504Z,3.37
2018-02-15T03:17:56.424Z,3.39
2018-02-15T03:18:55.519Z,3.37
2018-02-15T03:19:55.525Z,3.36
2018-02-15T03:20:55.526Z,3.36
2018-02-15T03:21:55.513Z,3.37
2018-02-15T03:22:55.515Z,3.37
2018-02-15T03:23:55.658Z,3.37
2018-02-15T03:24:55.528Z,3.37
2018-02-15T03:25:55.535Z,3.38
2018-02-15T03:26:55.551Z,3.37
2018-02-15T03:27:55.550Z,3.36
2018-02-15T03:28:55.582Z,3.37
2018-02-15T03:29:55.585Z,3.37
2018-02-15T03:30:55.578Z,3.35
2018-02-15T03:31:55.583Z,3.36
2018-02-15T03:32:55.590Z,3.36
2018-02-15T03:33:55.616Z,3.37
2018-02-15T03:34:55.598Z,3.37
2018-02-15T03:35:55.606Z,3.37
2018-02-15T03:36:55.589Z,3.38
2018-02-15T03:37:55.617Z,3.36
2018-02-15T03:38:55.632Z,3.37
2018-02-15T03:39:55.629Z,3.37
2018-02-15T03:40:55.611Z,3.37
2018-02-15T03:41:55.595Z,3.37
2018-02-15T03:42:55.600Z,3.36
2018-02-15T03:43:55.608Z,3.35
2018-02-15T03:44:55.635Z,3.33
2018-02-15T03:45:55.648Z,3.34
2018-02-15T03:46:55.630Z,3.34
2018-02-15T03:47:55.607Z,3.32
2018-02-15T03:48:55.616Z,3.32
2018-02-15T03:49:55.722Z,3.34
2018-02-15T03:50:55.654Z,3.31
2018-02-15T03:51:55.642Z,3.33
2018-02-15T03:52:55.650Z,3.32
2018-02-15T03:53:55.644Z,3.31
2018-02-15T03:54:55.704Z,3.3
2018-02-15T03:55:55.666Z,3.32
2018-02-15T03:56:55.668Z,3.31
2018-02-15T03:57:55.648Z,3.31
2018-02-15T03:58:55.665Z,3.29
2018-02-15T03:59:55.691Z,3.3
2018-02-15T04:00:55.699Z,3.29
2018-02-15T04:01:55.684Z,3.29
2018-02-15T04:02:55.683Z,3.3
2018-02-15T04:03:55.685Z,3.27
2018-02-15T04:04:55.797Z,3.28
2018-02-15T04:05:55.680Z,3.29
2018-02-15T04:06:55.771Z,3.29
2018-02-15T04:07:55.696Z,3.29
2018-02-15T04:08:55.694Z,3.26
2018-02-15T04:09:55.704Z,3.27
2018-02-15T04:10:55.720Z,3.26
2018-02-15T04:11:55.713Z,3.29
2018-02-15T04:12:55.702Z,3.28
2018-02-15T04:13:55.774Z,3.27
2018-02-15T04:14:55.733Z,3.31
2018-02-15T04:15:55.740Z,3.3
2018-02-15T04:16:55.773Z,3.26
2018-02-15T04:17:55.714Z,3.26
2018-02-15T04:18:55.744Z,3.25
2018-02-15T04:19:55.730Z,3.26
2018-02-15T04:20:55.735Z,3.27
2018-02-15T04:21:55.723Z,3.28
2018-02-15T04:22:55.720Z,3.26
2018-02-15T04:23:55.731Z,3.26
2018-02-15T04:24:55.736Z,3.27
2018-02-15T04:25:56.087Z,3.27
2018-02-15T04:26:55.758Z,3.27
2018-02-15T04:27:55.734Z,3.29
2018-02-15T04:28:55.733Z,3.29
2018-02-15T04:29:55.738Z,3.27
2018-02-15T04:30:55.763Z,3.26
2018-02-15T04:31:56.444Z,3.25
2018-02-15T04:32:55.754Z,3.27
2018-02-15T04:33:58.795Z,3.26
2018-02-15T04:34:55.771Z,3.24
2018-02-15T04:35:55.749Z,3.26
2018-02-15T04:36:55.784Z,3.28
2018-02-15T04:37:55.792Z,3.26
2018-02-15T04:38:55.770Z,3.28
2018-02-15T04:39:55.774Z,3.25
2018-02-15T04:40:55.782Z,3.27
2018-02-15T04:41:55.788Z,3.26
2018-02-15T04:42:55.795Z,3.27
2018-02-15T04:43:55.815Z,3.26
2018-02-15T04:44:55.789Z,3.26
2018-02-15T04:45:55.786Z,3.27
2018-02-15T04:46:55.821Z,3.29
2018-02-15T04:47:55.812Z,3.28
2018-02-15T04:48:55.835Z,3.26
2018-02-15T04:49:55.842Z,3.23
2018-02-15T04:50:55.814Z,3.24
2018-02-15T04:51:55.830Z,3.24
2018-02-15T04:52:55.827Z,3.23
2018-02-15T04:53:55.824Z,3.23
2018-02-15T04:54:55.855Z,3.24
2018-02-15T04:55:55.827Z,3.24
2018-02-15T04:56:55.841Z,3.24
2018-02-15T04:57:55.848Z,3.21
2018-02-15T04:58:55.834Z,3.2
2018-02-15T04:59:55.860Z,3.2
2018-02-15T05:00:55.873Z,3.2
2018-02-15T05:01:55.851Z,3.22
2018-02-15T05:02:55.855Z,3.23
2018-02-15T05:03:55.853Z,3.23
2018-02-15T05:04:55.840Z,3.24
2018-02-15T05:05:55.877Z,3.21
2018-02-15T05:06:55.883Z,3.22
2018-02-15T05:07:55.861Z,3.22
2018-02-15T05:08:55.866Z,3.23
2018-02-15T05:09:55.879Z,3.22
2018-02-15T05:10:55.891Z,3.22
2018-02-15T05:11:55.869Z,3.2
2018-02-15T05:12:55.865Z,3.21
2018-02-15T05:13:55.878Z,3.21
2018-02-15T05:14:55.881Z,3.21
2018-02-15T05:15:55.896Z,3.22
2018-02-15T05:16:56.235Z,3.19
2018-02-15T05:17:55.912Z,3.19
2018-02-15T05:18:55.889Z,3.22
2018-02-15T05:19:55.896Z,3.22
2018-02-15T05:20:55.928Z,3.21
2018-02-15T05:21:55.938Z,3.21
2018-02-15T05:22:55.899Z,3.22
2018-02-15T05:23:55.891Z,3.23
2018-02-15T05:24:55.897Z,3.21
2018-02-15T05:25:56.159Z,3.21
2018-02-15T05:26:55.921Z,3.2
2018-02-15T05:27:55.890Z,3.2
2018-02-15T05:28:55.896Z,3.21
2018-02-15T05:29:55.900Z,3.22
2018-02-15T05:30:55.937Z,3.2
2018-02-15T05:31:55.946Z,3.2
2018-02-15T05:32:55.913Z,3.21
2018-02-15T05:33:55.918Z,3.22
2018-02-15T05:34:55.927Z,3.23
2018-02-15T05:35:55.932Z,3.23
2018-02-15T05:36:55.935Z,3.23
2018-02-15T05:37:55.977Z,3.22
2018-02-15T05:38:56.056Z,3.19
2018-02-15T05:39:55.941Z,3.19
2018-02-15T05:40:56.118Z,3.21
2018-02-15T05:41:55.957Z,3.22
2018-02-15T05:42:55.961Z,3.21
2018-02-15T05:43:55.965Z,3.19
2018-02-15T05:44:55.944Z,3.22
2018-02-15T05:45:55.948Z,3.19
2018-02-15T05:46:55.945Z,3.2
2018-02-15T05:47:55.943Z,3.22
2018-02-15T05:48:56.007Z,3.2
2018-02-15T05:49:55.962Z,3.21
2018-02-15T05:50:55.976Z,3.23
2018-02-15T05:51:55.950Z,3.24
2018-02-15T05:52:55.977Z,3.24
2018-02-15T05:53:56.230Z,3.21
2018-02-15T05:54:55.969Z,3.22
2018-02-15T05:55:55.963Z,3.21
2018-02-15T05:56:55.967Z,3.21
2018-02-15T05:57:55.983Z,3.21
2018-02-15T05:58:55.986Z,3.23
2018-02-15T05:59:56.083Z,3.25
2018-02-15T06:00:56.033Z,3.23
2018-02-15T06:01:56.037Z,3.21
2018-02-15T06:02:56.069Z,3.19
2018-02-15T06:03:56.050Z,3.21
2018-02-15T06:04:56.079Z,3.22
2018-02-15T06:05:56.098Z,3.22
2018-02-15T06:06:56.018Z,3.2
2018-02-15T06:07:56.007Z,3.18
2018-02-15T06:08:56.062Z,3.2
2018-02-15T06:09:56.017Z,3.22
2018-02-15T06:10:56.025Z,3.22
2018-02-15T06:11:56.060Z,3.23
2018-02-15T06:12:56.031Z,3.22
2018-02-15T06:13:56.066Z,3.21
2018-02-15T06:14:56.043Z,3.19
2018-02-15T06:15:56.054Z,3.2
2018-02-15T06:16:56.039Z,3.19
2018-02-15T06:17:56.047Z,3.18
2018-02-15T06:18:56.043Z,3.17
2018-02-15T06:19:56.033Z,3.18
2018-02-15T06:20:56.112Z,3.21
2018-02-15T06:21:56.067Z,3.19
2018-02-15T06:22:56.054Z,3.2
2018-02-15T06:23:56.068Z,3.19
2018-02-15T06:24:56.067Z,3.2
2018-02-15T06:25:56.100Z,3.21
2018-02-15T06:26:56.080Z,3.21
2018-02-15T06:27:56.091Z,3.21
2018-02-15T06:28:56.069Z,3.21
2018-02-15T06:29:56.079Z,3.21
2018-02-15T06:30:56.082Z,3.2
2018-02-15T06:31:56.081Z,3.21
2018-02-15T06:32:56.227Z,3.22
2018-02-15T06:33:56.097Z,3.25
2018-02-15T06:34:56.093Z,3.26
2018-02-15T06:35:56.107Z,3.25
2018-02-15T06:36:56.259Z,3.26
2018-02-15T06:37:56.186Z,3.22
2018-02-15T06:38:56.171Z,3.22
2018-02-15T06:39:56.094Z,3.24
2018-02-15T06:40:56.107Z,3.22
2018-02-15T06:41:56.130Z,3.23
2018-02-15T06:42:56.138Z,3.24
2018-02-15T06:43:56.151Z,3.23
2018-02-15T06:44:56.136Z,3.24
2018-02-15T06:45:56.132Z,3.21
2018-02-15T06:46:56.137Z,3.22
2018-02-15T06:47:56.141Z,3.21
2018-02-15T06:48:56.155Z,3.21
2018-02-15T06:49:56.152Z,3.22
2018-02-15T06:50:56.144Z,3.22
2018-02-15T06:51:56.145Z,3.23
2018-02-15T06:52:56.132Z,3.24
2018-02-15T06:53:56.135Z,3.22
2018-02-15T06:54:56.141Z,3.23
2018-02-15T06:55:56.159Z,3.23
2018-02-15T06:56:56.174Z,3.24
2018-02-15T06:57:56.126Z,3.23
2018-02-15T06:58:56.192Z,3.24
2018-02-15T06:59:56.153Z,3.24
2018-02-15T07:00:56.148Z,3.26
2018-02-15T07:01:56.169Z,3.26
2018-02-15T07:02:56.163Z,3.25
2018-02-15T07:03:56.228Z,3.27
2018-02-15T07:04:56.171Z,3.27
2018-02-15T07:05:56.236Z,3.25
2018-02-15T07:06:56.239Z,3.27
2018-02-15T07:07:56.173Z,3.25
2018-02-15T07:08:56.238Z,3.25
2018-02-15T07:09:56.954Z,3.24
2018-02-15T07:10:56.195Z,3.26
2018-02-15T07:11:56.481Z,3.26
2018-02-15T07:12:56.217Z,3.27
2018-02-15T07:13:56.218Z,3.27
2018-02-15T07:14:56.230Z,3.28
2018-02-15T07:15:56.210Z,3.28
2018-02-15T07:16:56.214Z,3.28
2018-02-15T07:17:56.242Z,3.27
2018-02-15T07:18:56.227Z,3.27
2018-02-15T07:19:56.503Z,3.29
2018-02-15T07:20:56.261Z,3.3
2018-02-15T07:21:56.243Z,3.28
2018-02-15T07:22:56.250Z,3.27
2018-02-15T07:23:56.266Z,3.29
2018-02-15T07:24:56.293Z,3.28
2018-02-15T07:25:56.265Z,3.3
2018-02-15T07:26:56.517Z,3.32
2018-02-15T07:27:56.258Z,3.3
2018-02-15T07:28:56.279Z,3.32
2018-02-15T07:29:56.277Z,3.3
2018-02-15T07:30:56.279Z,3.35
2018-02-15T07:31:56.301Z,3.37
2018-02-15T07:32:56.299Z,3.4
2018-02-15T07:33:56.311Z,3.42
2018-02-15T07:34:56.294Z,3.43
2018-02-15T07:35:56.292Z,3.52
2018-02-15T07:36:56.296Z,3.59
2018-02-15T07:37:56.317Z,3.62
2018-02-15T07:38:56.323Z,3.63
2018-02-15T07:39:56.394Z,3.68
2018-02-15T07:40:56.310Z,3.69
2018-02-15T07:41:56.326Z,3.71
2018-02-15T07:42:56.305Z,3.82
2018-02-15T07:43:56.329Z,3.84
2018-02-15T07:44:57.130Z,3.86
2018-02-15T07:45:56.352Z,3.89
2018-02-15T07:46:56.334Z,3.87
2018-02-15T07:47:56.341Z,3.91
2018-02-15T07:48:56.504Z,3.96
2018-02-15T07:49:56.397Z,3.99
2018-02-15T07:50:56.362Z,3.96
2018-02-15T07:51:56.324Z,4.05
2018-02-15T07:52:56.351Z,4.03
2018-02-15T07:53:56.367Z,4.07
2018-02-15T07:54:56.627Z,4.12
2018-02-15T07:55:56.347Z,4.12
2018-02-15T07:56:56.356Z,4.13
2018-02-15T07:57:56.352Z,4.18
2018-02-15T07:58:56.356Z,4.22
2018-02-15T07:59:56.381Z,4.23
2018-02-15T08:00:56.390Z,4.25
2018-02-15T08:01:56.439Z,4.26
2018-02-15T08:02:56.436Z,4.29
2018-02-15T08:03:56.367Z,4.26
2018-02-15T08:04:56.391Z,4.28
2018-02-15T08:05:56.391Z,4.24
2018-02-15T08:06:56.373Z,4.28
2018-02-15T08:07:56.375Z,4.28
2018-02-15T08:08:56.393Z,4.32
2018-02-15T08:09:56.387Z,4.32
2018-02-15T08:10:56.366Z,4.31
2018-02-15T08:11:56.395Z,4.33
2018-02-15T08:12:56.376Z,4.32
2018-02-15T08:13:56.390Z,4.32
2018-02-15T08:14:56.400Z,4.32
2018-02-15T08:15:56.396Z,4.32
2018-02-15T08:16:56.407Z,4.34
2018-02-15T08:17:56.386Z,4.28
2018-02-15T08:18:56.389Z,4.29
2018-02-15T08:19:56.428Z,4.26
2018-02-15T08:20:56.393Z,4.32
2018-02-15T08:21:56.413Z,4.29
2018-02-15T08:22:56.409Z,4.25
2018-02-15T08:23:56.409Z,4.29
2018-02-15T08:24:56.419Z,4.26
2018-02-15T08:25:56.418Z,4.29
2018-02-15T08:26:56.420Z,4.28
2018-02-15T08:27:56.417Z,4.29
2018-02-15T08:28:56.445Z,4.29
2018-02-15T08:29:56.437Z,4.29
2018-02-15T08:30:56.441Z,4.3
2018-02-15T08:31:56.455Z,4.25
2018-02-15T08:32:56.443Z,4.28
2018-02-15T08:33:56.457Z,4.29
2018-02-15T08:34:56.471Z,4.3
2018-02-15T08:35:56.462Z,4.28
2018-02-15T08:36:56.460Z,4.29
2018-02-15T08:37:56.467Z,4.31
2018-02-15T08:38:56.474Z,4.32
2018-02-15T08:39:56.494Z,4.32
2018-02-15T08:40:56.487Z,4.33
2018-02-15T08:41:56.477Z,4.29
2018-02-15T08:42:56.520Z,4.32
2018-02-15T08:43:56.482Z,4.32
2018-02-15T08:44:56.531Z,4.31
2018-02-15T08:45:56.496Z,4.3
2018-02-15T08:46:56.467Z,4.33
2018-02-15T08:47:56.490Z,4.3
2018-02-15T08:48:56.505Z,4.32
2018-02-15T08:49:56.575Z,4.31
2018-02-15T08:50:56.494Z,4.32
2018-02-15T08:51:56.503Z,4.32
2018-02-15T08:52:56.486Z,4.3
2018-02-15T08:53:56.496Z,4.33
2018-02-15T08:54:25.743Z,4.35
2018-02-15T08:55:25.787Z,4.33
2018-02-15T08:56:25.769Z,4.33
2018-02-15T08:57:25.761Z,4.34
2018-02-15T08:58:25.756Z,4.36
2018-02-15T08:59:25.770Z,4.31
2018-02-15T09:00:25.797Z,4.34
2018-02-15T09:01:25.750Z,4.32
2018-02-15T09:02:25.787Z,4.3
2018-02-15T09:03:25.763Z,4.33
2018-02-15T09:04:25.833Z,4.37
2018-02-15T09:05:25.785Z,4.35
2018-02-15T09:06:25.782Z,4.36
2018-02-15T09:07:25.792Z,4.35
2018-02-15T09:08:25.779Z,4.35
2018-02-15T09:09:25.783Z,4.32
2018-02-15T09:10:25.844Z,4.37
2018-02-15T09:11:25.798Z,4.38
2018-02-15T09:12:25.808Z,4.35
2018-02-15T09:13:25.811Z,4.39
2018-02-15T09:14:25.827Z,4.39
2018-02-15T09:15:25.826Z,4.4
2018-02-15T09:16:25.819Z,4.39
2018-02-15T09:17:25.860Z,4.44
2018-02-15T09:18:25.820Z,4.43
2018-02-15T09:19:25.832Z,4.44
2018-02-15T09:20:25.827Z,4.42
2018-02-15T09:21:25.840Z,4.41
2018-02-15T09:22:26.001Z,4.42
2018-02-15T09:23:25.867Z,4.44
2018-02-15T09:24:25.839Z,4.45
2018-02-15T09:25:25.843Z,4.47
2018-02-15T09:26:25.878Z,4.47
2018-02-15T09:27:25.888Z,4.47
2018-02-15T09:28:25.863Z,4.46
2018-02-15T09:29:25.850Z,4.47
2018-02-15T09:30:25.883Z,4.47
2018-02-15T09:31:25.856Z,4.47
2018-02-15T09:32:25.995Z,4.42
2018-02-15T09:33:25.858Z,4.46
2018-02-15T09:34:25.873Z,4.45
2018-02-15T09:35:25.854Z,4.47
2018-02-15T09:36:25.876Z,4.47
2018-02-15T09:37:25.907Z,4.49
2018-02-15T09:38:25.901Z,4.5
2018-02-15T09:39:25.920Z,4.48
2018-02-15T09:40:25.871Z,4.48
2018-02-15T09:41:25.877Z,4.47
2018-02-15T09:42:25.898Z,4.48
2018-02-15T09:43:25.891Z,4.48
2018-02-15T09:44:25.886Z,4.49
2018-02-15T09:45:25.876Z,4.49
2018-02-15T09:46:25.875Z,4.48
2018-02-15T09:47:25.996Z,4.51
2018-02-15T09:48:25.893Z,4.51
2018-02-15T09:49:25.933Z,4.5
2018-02-15T09:50:25.920Z,4.51
2018-02-15T09:51:25.965Z,4.51
2018-02-15T09:52:26.117Z,4.53
2018-02-15T09:53:25.913Z,4.52
2018-02-15T09:54:26.080Z,4.53
2018-02-15T09:55:25.894Z,4.53
2018-02-15T09:56:25.911Z,4.52
2018-02-15T09:57:25.900Z,4.53
2018-02-15T09:58:25.914Z,4.55
2018-02-15T09:59:25.910Z,4.53
2018-02-15T10:00:25.898Z,4.52
2018-02-15T10:01:25.925Z,4.56
2018-02-15T10:02:25.912Z,4.54
2018-02-15T10:03:25.918Z,4.56
2018-02-15T10:04:25.943Z,4.56
2018-02-15T10:05:25.929Z,4.57
2018-02-15T10:06:25.938Z,4.56
2018-02-15T10:07:25.947Z,4.55
2018-02-15T10:08:25.952Z,4.57
2018-02-15T10:09:25.929Z,4.58
2018-02-15T10:10:26.172Z,4.56
2018-02-15T10:11:25.936Z,4.59
2018-02-15T10:12:25.950Z,4.58
2018-02-15T10:13:25.982Z,4.59
2018-02-15T10:14:25.930Z,4.6
2018-02-15T10:15:25.941Z,4.6
2018-02-15T10:16:25.984Z,4.63
2018-02-15T10:17:25.958Z,4.64
2018-02-15T10:18:25.964Z,4.72
2018-02-15T10:19:25.956Z,4.65
2018-02-15T10:20:25.954Z,4.65
2018-02-15T10:21:25.977Z,4.71
2018-02-15T10:22:25.975Z,4.76
2018-02-15T10:23:25.948Z,4.75
2018-02-15T10:24:25.992Z,4.73
2018-02-15T10:25:25.971Z,4.72
2018-02-15T10:26:25.977Z,4.76
2018-02-15T10:27:25.974Z,4.75
2018-02-15T10:28:25.984Z,4.72
2018-02-15T10:29:26.014Z,4.76
2018-02-15T10:30:25.977Z,4.75
2018-02-15T10:31:25.983Z,4.84
2018-02-15T10:32:25.989Z,4.83
2018-02-15T10:33:26.004Z,4.88
2018-02-15T10:34:26.025Z,4.8
2018-02-15T10:35:26.007Z,4.78
2018-02-15T10:36:26.006Z,4.82
2018-02-15T10:37:25.997Z,4.84
2018-02-15T10:38:26.004Z,4.86
2018-02-15T10:39:26.029Z,4.81
2018-02-15T10:40:26.025Z,4.79
2018-02-15T10:41:26.039Z,4.79
2018-02-15T10:42:26.015Z,4.78
2018-02-15T10:43:26.036Z,4.92
2018-02-15T10:44:26.060Z,4.83
2018-02-15T10:45:26.034Z,4.85
2018-02-15T10:46:26.041Z,4.82
2018-02-15T10:47:26.036Z,4.8
2018-02-15T10:48:26.028Z,4.83
2018-02-15T10:49:26.127Z,4.81
2018-02-15T10:50:26.049Z,4.78
2018-02-15T10:51:26.131Z,4.78
2018-02-15T10:52:26.051Z,4.79
2018-02-15T10:53:26.058Z,4.88
2018-02-15T10:54:26.103Z,4.85
2018-02-15T10:55:26.061Z,4.78
2018-02-15T10:56:26.322Z,4.83
2018-02-15T10:57:26.072Z,4.81
2018-02-15T10:58:26.063Z,4.85
2018-02-15T10:59:26.095Z,4.81
2018-02-15T11:00:26.065Z,4.79
2018-02-15T11:01:26.145Z,4.84
2018-02-15T11:02:26.076Z,4.86
2018-02-15T11:03:26.085Z,4.83
2018-02-15T11:04:26.113Z,4.82
2018-02-15T11:05:26.093Z,4.84
2018-02-15T11:06:26.084Z,4.88
2018-02-15T11:07:26.078Z,4.87
2018-02-15T11:08:26.105Z,4.86
2018-02-15T11:09:26.123Z,4.84
2018-02-15T11:10:26.100Z,4.87
2018-02-15T11:11:26.103Z,4.92
2018-02-15T11:12:26.087Z,4.89
2018-02-15T11:13:26.106Z,4.91
2018-02-15T11:14:26.135Z,4.91
2018-02-15T11:15:26.110Z,4.9
2018-02-15T11:16:26.115Z,4.94
2018-02-15T11:17:26.125Z,4.88
2018-02-15T11:18:26.132Z,4.9
2018-02-15T11:19:26.127Z,4.92
2018-02-15T11:20:26.130Z,4.91
2018-02-15T11:21:26.137Z,4.94
2018-02-15T11:22:26.996Z,4.93
2018-02-15T11:23:27.110Z,4.98
2018-02-15T11:24:26.407Z,4.96
2018-02-15T11:25:26.148Z,5.03
2018-02-15T11:26:27.024Z,4.96
2018-02-15T11:27:26.162Z,4.95
2018-02-15T11:28:27.921Z,4.99
2018-02-15T11:29:26.702Z,4.97
2018-02-15T11:30:26.166Z,4.99
2018-02-15T11:31:27.054Z,4.98
2018-02-15T11:32:26.177Z,4.96
2018-02-15T11:33:26.205Z,4.98
2018-02-15T11:34:26.187Z,4.98
2018-02-15T11:35:26.195Z,5
2018-02-15T11:36:26.190Z,4.98
2018-02-15T11:37:27.233Z,4.98
2018-02-15T11:38:26.223Z,4.96
2018-02-15T11:39:26.202Z,4.97
2018-02-15T11:40:28.264Z,4.98
2018-02-15T11:41:26.200Z,5
2018-02-15T11:42:26.218Z,5.02
2018-02-15T11:43:28.177Z,5
2018-02-15T11:44:26.215Z,5.01
2018-02-15T11:45:26.220Z,5.04
2018-02-15T11:46:26.226Z,5.03
2018-02-15T11:47:26.223Z,5.02
2018-02-15T11:48:26.224Z,5.01
2018-02-15T11:49:26.232Z,5.02
2018-02-15T11:50:26.235Z,5.01
2018-02-15T11:51:26.248Z,5.04
2018-02-15T11:52:26.228Z,5.03
2018-02-15T11:53:26.271Z,5.03
2018-02-15T11:54:26.246Z,5.06
2018-02-15T11:55:26.254Z,5.02
2018-02-15T11:56:26.331Z,5.01
2018-02-15T11:57:26.268Z,5.04
2018-02-15T11:58:26.275Z,5.05
2018-02-15T11:59:26.282Z,5.07
2018-02-15T12:00:26.300Z,5.09
2018-02-15T12:01:26.264Z,5.09
2018-02-15T12:02:26.310Z,5.1
2018-02-15T12:03:26.315Z,5.05
2018-02-15T12:04:26.288Z,5.08
2018-02-15T12:05:26.322Z,5.08
2018-02-15T12:06:26.269Z,5.07
2018-02-15T12:07:26.292Z,5.06
2018-02-15T12:08:26.284Z,5.08
2018-02-15T12:09:26.294Z,5.06
2018-02-15T12:10:26.301Z,5.08
2018-02-15T12:11:26.298Z,5.09
2018-02-15T12:12:26.308Z,5.08
2018-02-15T12:13:26.320Z,5.1
2018-02-15T12:14:26.298Z,5.1
2018-02-15T12:15:26.307Z,5.1
2018-02-15T12:16:26.313Z,5.11
2018-02-15T12:17:26.317Z,5.11
2018-02-15T12:18:26.583Z,5.13
2018-02-15T12:19:26.453Z,5.14
2018-02-15T12:20:26.463Z,5.13
2018-02-15T12:21:26.331Z,5.13
2018-02-15T12:22:26.351Z,5.1
2018-02-15T12:23:26.521Z,5.12
2018-02-15T12:24:26.368Z,5.15
2018-02-15T12:25:26.371Z,5.13
2018-02-15T12:26:26.486Z,5.14
2018-02-15T12:27:26.384Z,5.13
2018-02-15T12:28:26.397Z,5.13
2018-02-15T12:29:26.406Z,5.14
2018-02-15T12:30:26.410Z,5.15
2018-02-15T12:31:26.396Z,5.18
2018-02-15T12:32:26.445Z,5.16
2018-02-15T12:33:26.413Z,5.16
2018-02-15T12:34:26.461Z,5.18
2018-02-15T12:35:26.439Z,5.2
2018-02-15T12:36:26.369Z,5.24
2018-02-15T12:37:26.434Z,5.21
2018-02-15T12:38:26.385Z,5.22
2018-02-15T12:39:26.470Z,5.25
2018-02-15T12:40:26.573Z,5.21
2018-02-15T12:41:26.488Z,5.18
2018-02-15T12:42:26.728Z,5.21
2018-02-15T12:43:26.590Z,5.24
2018-02-15T12:44:26.508Z,5.2
2018-02-15T12:45:26.509Z,5.22
2018-02-15T12:46:26.508Z,5.22
2018-02-15T12:47:26.542Z,5.19
2018-02-15T12:48:26.528Z,5.24
2018-02-15T12:49:26.440Z,5.19
2018-02-15T12:50:26.439Z,5.22
2018-02-15T12:51:26.454Z,5.24
2018-02-15T12:52:26.435Z,5.27
2018-02-15T12:53:26.441Z,5.25
2018-02-15T12:54:26.667Z,5.22
2018-02-15T12:55:26.430Z,5.25
2018-02-15T12:56:26.432Z,5.27
2018-02-15T12:57:26.440Z,5.26
2018-02-15T12:58:26.475Z,5.27
2018-02-15T12:59:26.429Z,5.26
2018-02-15T13:00:26.443Z,5.23
2018-02-15T13:01:26.473Z,5.22
2018-02-15T13:02:26.476Z,5.21
2018-02-15T13:03:26.458Z,5.26
2018-02-15T13:04:26.454Z,5.27
2018-02-15T13:05:26.454Z,5.27
2018-02-15T13:06:26.440Z,5.28
2018-02-15T13:07:26.456Z,5.28
2018-02-15T13:08:26.455Z,5.31
2018-02-15T13:09:26.478Z,5.29
2018-02-15T13:10:26.477Z,5.3
2018-02-15T13:11:26.469Z,5.28
2018-02-15T13:12:26.455Z,5.27
2018-02-15T13:13:26.494Z,5.3
2018-02-15T13:14:26.487Z,5.3
2018-02-15T13:15:26.465Z,5.28
2018-02-15T13:16:26.594Z,5.35
2018-02-15T13:17:26.485Z,5.35
2018-02-15T13:18:26.535Z,5.33
2018-02-15T13:19:26.475Z,5.35
2018-02-15T13:20:26.496Z,5.37